Playa Vista, California
Current Conditions -  °F | °C
As of 12:53 PM on Tuesday 21 Oct 2014 (Local Time) from KLAX Reporting Station
Broken Clouds Broken Clouds  
Wind Chill: 72°   Ceiling: 20000
Heat Index: 72°   Visibility: 10mi
Dew Point: 58°   Wind: 8mph
Humidity: 61%   Direction: 240°WSW
Pressure: 29.89"   Gusts: NA
Location:  33.9534°N, 118.399°W
Report Text: KLAX 211953Z 24007KT 10SM SCT180 BKN200 22/14 A2989 RMK AO2 SLP119 T02220144 $
Loading
Personal Weather Stations






























Interactive Weather Map
Tropical Storm Tracking
New forecast layout! Learn more

10-Day Weather Forecast

Advertisements
Track Severe Weather on mobile